sensor_id;sensor_type;location;lat;lon;timestamp;pressure;altitude;pressure_sealevel;temperature;humidity
21300;BME280;10809;49.476;11.016;2023-04-24T00:02:24;97233.09;;;12.76;59.94
21300;BME280;10809;49.476;11.016;2023-04-24T00:04:54;97235.88;;;12.75;60.09
21300;BME280;10809;49.476;11.016;2023-04-24T00:07:29;97247.44;;;12.74;60.02
21300;BME280;10809;49.476;11.016;2023-04-24T00:09:59;97236.94;;;12.72;60.20
21300;BME280;10809;49.476;11.016;2023-04-24T00:12:30;97243.34;;;12.70;60.24
21300;BME280;10809;49.476;11.016;2023-04-24T00:15:01;97237.44;;;12.66;60.26
21300;BME280;10809;49.476;11.016;2023-04-24T00:17:32;97236.75;;;12.64;60.38
21300;BME280;10809;49.476;11.016;2023-04-24T00:20:03;97232.50;;;12.62;60.30
21300;BME280;10809;49.476;11.016;2023-04-24T00:22:34;97231.81;;;12.60;60.19
21300;BME280;10809;49.476;11.016;2023-04-24T00:25:08;97228.41;;;12.58;60.37
21300;BME280;10809;49.476;11.016;2023-04-24T00:27:42;97235.66;;;12.56;60.65
21300;BME280;10809;49.476;11.016;2023-04-24T00:30:15;97241.81;;;12.56;60.55
21300;BME280;10809;49.476;11.016;2023-04-24T00:32:46;97236.63;;;12.55;60.88
21300;BME280;10809;49.476;11.016;2023-04-24T00:35:22;97233.13;;;12.54;60.59
21300;BME280;10809;49.476;11.016;2023-04-24T00:37:53;97235.78;;;12.54;60.58
21300;BME280;10809;49.476;11.016;2023-04-24T00:40:24;97237.63;;;12.54;60.76
21300;BME280;10809;49.476;11.016;2023-04-24T00:42:54;97231.44;;;12.53;60.75
21300;BME280;10809;49.476;11.016;2023-04-24T00:45:25;97230.72;;;12.51;60.58
21300;BME280;10809;49.476;11.016;2023-04-24T00:47:55;97223.59;;;12.52;60.81
21300;BME280;10809;49.476;11.016;2023-04-24T00:50:32;97213.22;;;12.49;60.45
21300;BME280;10809;49.476;11.016;2023-04-24T00:53:09;97217.81;;;12.47;60.42
21300;BME280;10809;49.476;11.016;2023-04-24T00:55:46;97220.72;;;12.44;60.46
21300;BME280;10809;49.476;11.016;2023-04-24T00:58:20;97216.38;;;12.43;60.68
21300;BME280;10809;49.476;11.016;2023-04-24T01:00:51;97222.66;;;12.42;60.85
21300;BME280;10809;49.476;11.016;2023-04-24T01:03:25;97224.59;;;12.40;60.97
21300;BME280;10809;49.476;11.016;2023-04-24T01:05:56;97223.84;;;12.38;61.17
21300;BME280;10809;49.476;11.016;2023-04-24T01:08:28;97221.28;;;12.36;61.23
21300;BME280;10809;49.476;11.016;2023-04-24T01:10:58;97224.81;;;12.37;61.10
21300;BME280;10809;49.476;11.016;2023-04-24T01:13:32;97233.72;;;12.36;61.07
21300;BME280;10809;49.476;11.016;2023-04-24T01:16:03;97220.44;;;12.36;61.22
21300;BME280;10809;49.476;11.016;2023-04-24T01:18:34;97216.97;;;12.35;61.39
21300;BME280;10809;49.476;11.016;2023-04-24T01:21:05;97220.56;;;12.34;61.18
21300;BME280;10809;49.476;11.016;2023-04-24T01:23:37;97218.88;;;12.33;61.16
21300;BME280;10809;49.476;11.016;2023-04-24T01:26:08;97218.03;;;12.33;61.29
21300;BME280;10809;49.476;11.016;2023-04-24T01:28:38;97232.28;;;12.32;61.44
21300;BME280;10809;49.476;11.016;2023-04-24T01:31:30;97229.63;;;12.32;61.05
21300;BME280;10809;49.476;11.016;2023-04-24T01:34:19;97225.28;;;12.31;61.10
21300;BME280;10809;49.476;11.016;2023-04-24T01:36:49;97229.63;;;12.32;61.40
21300;BME280;10809;49.476;11.016;2023-04-24T01:39:23;97223.59;;;12.30;61.27
21300;BME280;10809;49.476;11.016;2023-04-24T01:41:57;97229.00;;;12.28;61.60
21300;BME280;10809;49.476;11.016;2023-04-24T01:44:28;97226.34;;;12.28;61.42
21300;BME280;10809;49.476;11.016;2023-04-24T01:47:00;97223.81;;;12.27;61.34
21300;BME280;10809;49.476;11.016;2023-04-24T01:49:31;97230.97;;;12.26;61.10
21300;BME280;10809;49.476;11.016;2023-04-24T01:52:02;97232.78;;;12.26;61.52
21300;BME280;10809;49.476;11.016;2023-04-24T01:54:34;97234.69;;;12.24;61.38
21300;BME280;10809;49.476;11.016;2023-04-24T01:57:09;97226.72;;;12.24;61.29
21300;BME280;10809;49.476;11.016;2023-04-24T01:59:39;97215.41;;;12.22;61.44
21300;BME280;10809;49.476;11.016;2023-04-24T02:02:10;97211.03;;;12.21;61.59
21300;BME280;10809;49.476;11.016;2023-04-24T02:04:41;97212.03;;;12.20;61.53
21300;BME280;10809;49.476;11.016;2023-04-24T02:07:11;97205.16;;;12.17;61.49
21300;BME280;10809;49.476;11.016;2023-04-24T02:09:42;97208.63;;;12.18;61.41
21300;BME280;10809;49.476;11.016;2023-04-24T02:12:16;97191.03;;;12.17;61.39
21300;BME280;10809;49.476;11.016;2023-04-24T02:14:54;97201.66;;;12.17;61.05
21300;BME280;10809;49.476;11.016;2023-04-24T02:17:28;97189.38;;;12.16;61.06
21300;BME280;10809;49.476;11.016;2023-04-24T02:19:58;97186.84;;;12.14;61.33
21300;BME280;10809;49.476;11.016;2023-04-24T02:22:29;97186.94;;;12.13;61.53
21300;BME280;10809;49.476;11.016;2023-04-24T02:24:59;97191.53;;;12.11;61.52
21300;BME280;10809;49.476;11.016;2023-04-24T02:27:30;97189.84;;;12.10;61.37
21300;BME280;10809;49.476;11.016;2023-04-24T02:30:01;97190.91;;;12.07;61.33
21300;BME280;10809;49.476;11.016;2023-04-24T02:32:31;97188.25;;;12.07;61.49
21300;BME280;10809;49.476;11.016;2023-04-24T02:35:02;97185.72;;;12.06;61.54
21300;BME280;10809;49.476;11.016;2023-04-24T02:37:41;97185.03;;;12.04;61.54
21300;BME280;10809;49.476;11.016;2023-04-24T02:40:19;97179.00;;;12.02;61.41
21300;BME280;10809;49.476;11.016;2023-04-24T02:42:49;97185.16;;;12.02;61.66
21300;BME280;10809;49.476;11.016;2023-04-24T02:45:27;97187.94;;;12.01;61.76
21300;BME280;10809;49.476;11.016;2023-04-24T02:48:00;97181.88;;;11.99;61.58
21300;BME280;10809;49.476;11.016;2023-04-24T02:50:47;97185.53;;;11.98;61.53
21300;BME280;10809;49.476;11.016;2023-04-24T02:53:21;97188.16;;;11.98;61.69
21300;BME280;10809;49.476;11.016;2023-04-24T02:55:54;97183.94;;;11.95;61.84
21300;BME280;10809;49.476;11.016;2023-04-24T02:58:25;97185.75;;;11.95;61.92
21300;BME280;10809;49.476;11.016;2023-04-24T03:00:55;97185.03;;;11.93;61.90
21300;BME280;10809;49.476;11.016;2023-04-24T03:03:26;97189.47;;;11.92;61.73
21300;BME280;10809;49.476;11.016;2023-04-24T03:05:56;97177.31;;;11.90;61.78
21300;BME280;10809;49.476;11.016;2023-04-24T03:08:31;97185.38;;;11.88;61.68
21300;BME280;10809;49.476;11.016;2023-04-24T03:11:02;97179.22;;;11.88;61.77
21300;BME280;10809;49.476;11.016;2023-04-24T03:13:32;97169.72;;;11.85;62.02
21300;BME280;10809;49.476;11.016;2023-04-24T03:16:06;97175.97;;;11.84;61.87
21300;BME280;10809;49.476;11.016;2023-04-24T03:18:46;97169.97;;;11.82;61.75
21300;BME280;10809;49.476;11.016;2023-04-24T03:21:17;97171.03;;;11.80;61.90
21300;BME280;10809;49.476;11.016;2023-04-24T03:23:48;97165.84;;;11.78;61.70
21300;BME280;10809;49.476;11.016;2023-04-24T03:26:19;97171.25;;;11.77;61.96
21300;BME280;10809;49.476;11.016;2023-04-24T03:29:04;97172.25;;;11.76;61.99
21300;BME280;10809;49.476;11.016;2023-04-24T03:31:34;97165.25;;;11.75;62.04
21300;BME280;10809;49.476;11.016;2023-04-24T03:34:14;97175.13;;;11.73;61.67
21300;BME280;10809;49.476;11.016;2023-04-24T03:36:45;97171.63;;;11.72;61.60
21300;BME280;10809;49.476;11.016;2023-04-24T03:39:18;97172.72;;;11.70;61.94
21300;BME280;10809;49.476;11.016;2023-04-24T03:42:03;97177.28;;;11.68;61.63
21300;BME280;10809;49.476;11.016;2023-04-24T03:44:45;97168.63;;;11.66;61.53
21300;BME280;10809;49.476;11.016;2023-04-24T03:47:19;97168.03;;;11.62;61.84
21300;BME280;10809;49.476;11.016;2023-04-24T03:50:01;97173.56;;;11.59;61.74
21300;BME280;10809;49.476;11.016;2023-04-24T03:52:32;97175.47;;;11.57;61.89
21300;BME280;10809;49.476;11.016;2023-04-24T03:55:03;97179.22;;;11.55;61.98
21300;BME280;10809;49.476;11.016;2023-04-24T03:57:40;97183.78;;;11.53;61.92
21300;BME280;10809;49.476;11.016;2023-04-24T04:00:20;97183.91;;;11.51;61.99
21300;BME280;10809;49.476;11.016;2023-04-24T04:02:58;97197.28;;;11.50;62.13
21300;BME280;10809;49.476;11.016;2023-04-24T04:05:29;97194.75;;;11.48;62.19
21300;BME280;10809;49.476;11.016;2023-04-24T04:08:01;97194.97;;;11.45;62.03
21300;BME280;10809;49.476;11.016;2023-04-24T04:10:31;97195.09;;;11.44;62.42
21300;BME280;10809;49.476;11.016;2023-04-24T04:13:01;97194.38;;;11.42;62.44
21300;BME280;10809;49.476;11.016;2023-04-24T04:15:32;97193.66;;;11.40;62.40
21300;BME280;10809;49.476;11.016;2023-04-24T04:18:03;97191.13;;;11.38;62.46
21300;BME280;10809;49.476;11.016;2023-04-24T04:20:34;97179.03;;;11.34;62.00
21300;BME280;10809;49.476;11.016;2023-04-24T04:23:04;97184.47;;;11.32;62.22
21300;BME280;10809;49.476;11.016;2023-04-24T04:25:53;97190.00;;;11.29;62.24
21300;BME280;10809;49.476;11.016;2023-04-24T04:28:30;97185.78;;;11.27;62.58
21300;BME280;10809;49.476;11.016;2023-04-24T04:31:01;97181.56;;;11.24;62.78
21300;BME280;10809;49.476;11.016;2023-04-24T04:33:32;97192.25;;;11.23;62.60
21300;BME280;10809;49.476;11.016;2023-04-24T04:36:09;97189.84;;;11.20;62.51
21300;BME280;10809;49.476;11.016;2023-04-24T04:38:47;97192.59;;;11.18;62.59
21300;BME280;10809;49.476;11.016;2023-04-24T04:41:48;97184.88;;;11.15;62.67
21300;BME280;10809;49.476;11.016;2023-04-24T04:44:20;97193.78;;;11.14;62.75
21300;BME280;10809;49.476;11.016;2023-04-24T04:46:51;97196.53;;;11.13;63.07
21300;BME280;10809;49.476;11.016;2023-04-24T04:49:43;97186.06;;;11.11;63.08
21300;BME280;10809;49.476;11.016;2023-04-24T04:52:27;97187.03;;;11.10;62.98
21300;BME280;10809;49.476;11.016;2023-04-24T04:55:09;97177.41;;;11.09;63.09
21300;BME280;10809;49.476;11.016;2023-04-24T04:57:58;97188.94;;;11.08;63.28
21300;BME280;10809;49.476;11.016;2023-04-24T05:00:30;97194.34;;;11.07;63.06
21300;BME280;10809;49.476;11.016;2023-04-24T05:03:16;97200.63;;;11.06;63.13
21300;BME280;10809;49.476;11.016;2023-04-24T05:05:46;97199.78;;;11.05;63.28
21300;BME280;10809;49.476;11.016;2023-04-24T05:08:19;97206.78;;;11.06;63.47
21300;BME280;10809;49.476;11.016;2023-04-24T05:10:50;97213.88;;;11.06;63.69
21300;BME280;10809;49.476;11.016;2023-04-24T05:13:20;97209.44;;;11.06;63.69
21300;BME280;10809;49.476;11.016;2023-04-24T05:15:54;97211.97;;;11.08;63.46
21300;BME280;10809;49.476;11.016;2023-04-24T05:18:25;97225.09;;;11.09;63.82
21300;BME280;10809;49.476;11.016;2023-04-24T05:20:56;97222.31;;;11.11;63.74
21300;BME280;10809;49.476;11.016;2023-04-24T05:23:34;97223.88;;;11.13;63.88
21300;BME280;10809;49.476;11.016;2023-04-24T05:26:05;97224.75;;;11.14;63.62
21300;BME280;10809;49.476;11.016;2023-04-24T05:28:39;97221.97;;;11.15;63.66
21300;BME280;10809;49.476;11.016;2023-04-24T05:31:13;97228.00;;;11.17;63.67
21300;BME280;10809;49.476;11.016;2023-04-24T05:33:50;97233.16;;;11.19;63.78
21300;BME280;10809;49.476;11.016;2023-04-24T05:36:21;97235.69;;;11.20;64.02
21300;BME280;10809;49.476;11.016;2023-04-24T05:38:51;97246.09;;;11.23;64.01
21300;BME280;10809;49.476;11.016;2023-04-24T05:41:22;97243.22;;;11.26;63.84
21300;BME280;10809;49.476;11.016;2023-04-24T05:43:52;97242.16;;;11.29;64.09
21300;BME280;10809;49.476;11.016;2023-04-24T05:46:23;97247.25;;;11.32;64.05
21300;BME280;10809;49.476;11.016;2023-04-24T05:48:54;97241.81;;;11.34;64.15
21300;BME280;10809;49.476;11.016;2023-04-24T05:51:24;97244.25;;;11.37;64.09
21300;BME280;10809;49.476;11.016;2023-04-24T05:53:56;97247.50;;;11.40;63.95
21300;BME280;10809;49.476;11.016;2023-04-24T05:56:27;97254.38;;;11.43;64.24
21300;BME280;10809;49.476;11.016;2023-04-24T05:59:00;97248.72;;;11.47;64.08
21300;BME280;10809;49.476;11.016;2023-04-24T06:01:34;97251.03;;;11.52;64.13
21300;BME280;10809;49.476;11.016;2023-04-24T06:04:18;97249.00;;;11.55;64.13
21300;BME280;10809;49.476;11.016;2023-04-24T06:06:49;97246.94;;;11.59;63.96
21300;BME280;10809;49.476;11.016;2023-04-24T06:09:22;97248.53;;;11.61;64.08
21300;BME280;10809;49.476;11.016;2023-04-24T06:11:53;97253.59;;;11.64;64.12
21300;BME280;10809;49.476;11.016;2023-04-24T06:14:27;97256.00;;;11.67;64.05
21300;BME280;10809;49.476;11.016;2023-04-24T06:17:36;97259.25;;;11.71;63.76
21300;BME280;10809;49.476;11.016;2023-04-24T06:20:06;97257.34;;;11.73;63.58
21300;BME280;10809;49.476;11.016;2023-04-24T06:22:38;97261.66;;;11.74;63.61
21300;BME280;10809;49.476;11.016;2023-04-24T06:25:13;97261.66;;;11.74;63.75
21300;BME280;10809;49.476;11.016;2023-04-24T06:27:46;97268.78;;;11.73;63.53
21300;BME280;10809;49.476;11.016;2023-04-24T06:30:17;97274.91;;;11.74;63.67
21300;BME280;10809;49.476;11.016;2023-04-24T06:32:48;97290.84;;;11.74;63.74
21300;BME280;10809;49.476;11.016;2023-04-24T06:35:19;97305.19;;;11.71;63.61
21300;BME280;10809;49.476;11.016;2023-04-24T06:37:51;97290.38;;;11.69;63.19
21300;BME280;10809;49.476;11.016;2023-04-24T06:40:22;97283.34;;;11.68;63.25
21300;BME280;10809;49.476;11.016;2023-04-24T06:42:52;97288.06;;;11.64;63.24
21300;BME280;10809;49.476;11.016;2023-04-24T06:45:23;97291.06;;;11.60;63.11
21300;BME280;10809;49.476;11.016;2023-04-24T06:47:53;97294.88;;;11.56;63.18
21300;BME280;10809;49.476;11.016;2023-04-24T06:50:24;97286.47;;;11.51;63.39
21300;BME280;10809;49.476;11.016;2023-04-24T06:52:54;97291.00;;;11.49;63.56
21300;BME280;10809;49.476;11.016;2023-04-24T06:55:28;97296.31;;;11.49;63.44
21300;BME280;10809;49.476;11.016;2023-04-24T06:58:04;97292.81;;;11.48;63.63
21300;BME280;10809;49.476;11.016;2023-04-24T07:00:36;97298.97;;;11.49;64.10
21300;BME280;10809;49.476;11.016;2023-04-24T07:03:06;97308.47;;;11.51;63.61
21300;BME280;10809;49.476;11.016;2023-04-24T07:05:37;97303.19;;;11.51;63.89
21300;BME280;10809;49.476;11.016;2023-04-24T07:08:11;97305.72;;;11.53;63.79
21300;BME280;10809;49.476;11.016;2023-04-24T07:10:48;97309.00;;;11.56;63.62
21300;BME280;10809;49.476;11.016;2023-04-24T07:13:19;97313.31;;;11.57;63.23
21300;BME280;10809;49.476;11.016;2023-04-24T07:15:50;97318.28;;;11.62;63.44
21300;BME280;10809;49.476;11.016;2023-04-24T07:18:23;97311.94;;;11.64;63.62
21300;BME280;10809;49.476;11.016;2023-04-24T07:20:53;97327.38;;;11.70;63.31
21300;BME280;10809;49.476;11.016;2023-04-24T07:23:23;97322.66;;;11.74;63.13
21300;BME280;10809;49.476;11.016;2023-04-24T07:25:54;97325.56;;;11.82;63.29
21300;BME280;10809;49.476;11.016;2023-04-24T07:28:25;97332.84;;;11.91;63.75
21300;BME280;10809;49.476;11.016;2023-04-24T07:30:55;97326.81;;;12.00;62.53
21300;BME280;10809;49.476;11.016;2023-04-24T07:33:35;97327.19;;;12.06;62.29
21300;BME280;10809;49.476;11.016;2023-04-24T07:36:06;97331.53;;;12.07;60.91
21300;BME280;10809;49.476;11.016;2023-04-24T07:38:36;97333.38;;;12.07;60.69
21300;BME280;10809;49.476;11.016;2023-04-24T07:41:07;97343.25;;;12.05;60.57
21300;BME280;10809;49.476;11.016;2023-04-24T07:43:37;97341.78;;;12.01;60.63
21300;BME280;10809;49.476;11.016;2023-04-24T07:46:14;97346.47;;;11.97;60.52
21300;BME280;10809;49.476;11.016;2023-04-24T07:48:44;97354.56;;;11.96;60.29
21300;BME280;10809;49.476;11.016;2023-04-24T07:51:19;97356.47;;;11.94;60.77
21300;BME280;10809;49.476;11.016;2023-04-24T07:53:50;97357.22;;;11.96;61.26
21300;BME280;10809;49.476;11.016;2023-04-24T07:56:21;97352.28;;;12.02;61.71
21300;BME280;10809;49.476;11.016;2023-04-24T07:58:57;97342.66;;;12.12;62.09
21300;BME280;10809;49.476;11.016;2023-04-24T08:01:31;97349.31;;;12.29;62.17
21300;BME280;10809;49.476;11.016;2023-04-24T08:04:01;97345.97;;;12.49;62.47
21300;BME280;10809;49.476;11.016;2023-04-24T08:06:32;97345.00;;;12.72;62.50
21300;BME280;10809;49.476;11.016;2023-04-24T08:09:02;97349.47;;;12.93;61.76
21300;BME280;10809;49.476;11.016;2023-04-24T08:11:33;97352.44;;;13.11;61.04
21300;BME280;10809;49.476;11.016;2023-04-24T08:14:03;97359.28;;;13.25;60.16
21300;BME280;10809;49.476;11.016;2023-04-24T08:16:34;97360.34;;;13.33;59.11
21300;BME280;10809;49.476;11.016;2023-04-24T08:19:05;97359.16;;;13.37;58.30
21300;BME280;10809;49.476;11.016;2023-04-24T08:21:36;97359.28;;;13.36;57.93
21300;BME280;10809;49.476;11.016;2023-04-24T08:24:06;97367.50;;;13.33;58.20
21300;BME280;10809;49.476;11.016;2023-04-24T08:26:38;97371.47;;;13.27;57.69
21300;BME280;10809;49.476;11.016;2023-04-24T08:29:14;97367.66;;;13.20;57.26
21300;BME280;10809;49.476;11.016;2023-04-24T08:31:45;97383.22;;;13.14;57.64
21300;BME280;10809;49.476;11.016;2023-04-24T08:34:19;97382.06;;;13.07;57.43
21300;BME280;10809;49.476;11.016;2023-04-24T08:36:53;97379.75;;;13.02;57.44
21300;BME280;10809;49.476;11.016;2023-04-24T08:39:24;97382.66;;;12.99;57.89
21300;BME280;10809;49.476;11.016;2023-04-24T08:42:01;97397.75;;;12.98;57.88
21300;BME280;10809;49.476;11.016;2023-04-24T08:44:35;97388.97;;;12.98;57.95
21300;BME280;10809;49.476;11.016;2023-04-24T08:47:10;97405.59;;;13.00;57.86
21300;BME280;10809;49.476;11.016;2023-04-24T08:49:42;97396.69;;;13.01;57.88
21300;BME280;10809;49.476;11.016;2023-04-24T08:52:13;97394.72;;;13.03;57.26
21300;BME280;10809;49.476;11.016;2023-04-24T08:54:45;97402.56;;;13.04;57.12
21300;BME280;10809;49.476;11.016;2023-04-24T08:57:17;97396.44;;;13.04;56.74
21300;BME280;10809;49.476;11.016;2023-04-24T08:59:48;97391.50;;;12.99;56.38
21300;BME280;10809;49.476;11.016;2023-04-24T09:02:20;97397.16;;;12.95;56.31
21300;BME280;10809;49.476;11.016;2023-04-24T09:04:52;97387.00;;;12.89;56.05
21300;BME280;10809;49.476;11.016;2023-04-24T09:07:24;97391.84;;;12.84;56.73
21300;BME280;10809;49.476;11.016;2023-04-24T09:09:58;97389.56;;;12.79;56.61
21300;BME280;10809;49.476;11.016;2023-04-24T09:12:29;97393.16;;;12.78;57.59
21300;BME280;10809;49.476;11.016;2023-04-24T09:15:03;97384.59;;;12.86;58.73
21300;BME280;10809;49.476;11.016;2023-04-24T09:17:38;97373.72;;;13.00;58.74
21300;BME280;10809;49.476;11.016;2023-04-24T09:20:11;97370.56;;;13.17;58.79
21300;BME280;10809;49.476;11.016;2023-04-24T09:22:45;97372.81;;;13.33;58.36
21300;BME280;10809;49.476;11.016;2023-04-24T09:25:15;97366.41;;;13.46;57.46
21300;BME280;10809;49.476;11.016;2023-04-24T09:27:46;97370.09;;;13.55;56.43
21300;BME280;10809;49.476;11.016;2023-04-24T09:30:21;97363.72;;;13.57;56.28
21300;BME280;10809;49.476;11.016;2023-04-24T09:33:13;97365.66;;;13.55;56.35
21300;BME280;10809;49.476;11.016;2023-04-24T09:35:50;97380.06;;;13.53;56.26
21300;BME280;10809;49.476;11.016;2023-04-24T09:38:36;97372.06;;;13.53;56.38
21300;BME280;10809;49.476;11.016;2023-04-24T09:41:08;97369.03;;;13.57;56.65
21300;BME280;10809;49.476;11.016;2023-04-24T09:43:43;97374.66;;;13.64;56.55
21300;BME280;10809;49.476;11.016;2023-04-24T09:46:18;97367.25;;;13.78;57.06
21300;BME280;10809;49.476;11.016;2023-04-24T09:48:48;97362.31;;;13.94;57.32
21300;BME280;10809;49.476;11.016;2023-04-24T09:51:33;97379.28;;;14.14;57.53
21300;BME280;10809;49.476;11.016;2023-04-24T09:54:14;97360.63;;;14.34;57.00
21300;BME280;10809;49.476;11.016;2023-04-24T09:56:47;97346.50;;;14.54;55.63
21300;BME280;10809;49.476;11.016;2023-04-24T09:59:22;97351.56;;;14.67;53.68
21300;BME280;10809;49.476;11.016;2023-04-24T10:01:56;97364.22;;;14.74;53.14
21300;BME280;10809;49.476;11.016;2023-04-24T10:04:30;97362.41;;;14.75;52.76
21300;BME280;10809;49.476;11.016;2023-04-24T10:07:03;97369.41;;;14.76;53.09
21300;BME280;10809;49.476;11.016;2023-04-24T10:09:36;97360.19;;;14.80;52.61
21300;BME280;10809;49.476;11.016;2023-04-24T10:12:07;97363.16;;;14.87;52.12
21300;BME280;10809;49.476;11.016;2023-04-24T10:14:38;97358.97;;;14.94;51.51
21300;BME280;10809;49.476;11.016;2023-04-24T10:17:09;97369.56;;;15.05;51.61
21300;BME280;10809;49.476;11.016;2023-04-24T10:19:43;97370.41;;;15.15;51.48
21300;BME280;10809;49.476;11.016;2023-04-24T10:22:15;97368.47;;;15.26;51.02
21300;BME280;10809;49.476;11.016;2023-04-24T10:24:56;97367.50;;;15.37;51.07
21300;BME280;10809;49.476;11.016;2023-04-24T10:27:28;97372.31;;;15.43;50.40
21300;BME280;10809;49.476;11.016;2023-04-24T10:30:00;97385.25;;;15.47;50.66
21300;BME280;10809;49.476;11.016;2023-04-24T10:32:34;97382.88;;;15.54;50.42
21300;BME280;10809;49.476;11.016;2023-04-24T10:35:12;97387.25;;;15.55;50.38
21300;BME280;10809;49.476;11.016;2023-04-24T10:38:03;97406.47;;;15.49;50.26
21300;BME280;10809;49.476;11.016;2023-04-24T10:40:35;97411.31;;;15.34;48.78
21300;BME280;10809;49.476;11.016;2023-04-24T10:43:07;97434.28;;;15.16;49.06
21300;BME280;10809;49.476;11.016;2023-04-24T10:46:00;97416.78;;;14.93;49.96
21300;BME280;10809;49.476;11.016;2023-04-24T10:48:31;97426.38;;;14.75;49.54
21300;BME280;10809;49.476;11.016;2023-04-24T10:51:02;97438.59;;;14.57;49.95
21300;BME280;10809;49.476;11.016;2023-04-24T10:53:34;97448.81;;;14.41;49.71
21300;BME280;10809;49.476;11.016;2023-04-24T10:56:07;97456.44;;;14.25;49.48
21300;BME280;10809;49.476;11.016;2023-04-24T10:58:39;97451.53;;;14.09;49.51
21300;BME280;10809;49.476;11.016;2023-04-24T11:01:30;97451.38;;;13.90;50.55
21300;BME280;10809;49.476;11.016;2023-04-24T11:04:03;97451.41;;;13.79;49.75
21300;BME280;10809;49.476;11.016;2023-04-24T11:06:35;97464.84;;;13.67;49.75
21300;BME280;10809;49.476;11.016;2023-04-24T11:09:14;97450.75;;;13.55;50.09
21300;BME280;10809;49.476;11.016;2023-04-24T11:12:06;97438.09;;;13.48;50.71
21300;BME280;10809;49.476;11.016;2023-04-24T11:17:38;97454.50;;;13.42;50.13
21300;BME280;10809;49.476;11.016;2023-04-24T11:20:17;97450.00;;;13.42;50.39
21300;BME280;10809;49.476;11.016;2023-04-24T11:22:52;97454.38;;;13.43;50.26
21300;BME280;10809;49.476;11.016;2023-04-24T11:25:31;97444.25;;;13.48;50.55
21300;BME280;10809;49.476;11.016;2023-04-24T11:28:05;97436.34;;;13.58;50.61
21300;BME280;10809;49.476;11.016;2023-04-24T11:30:39;97442.50;;;13.69;51.10
21300;BME280;10809;49.476;11.016;2023-04-24T11:33:19;97450.91;;;13.85;51.29
21300;BME280;10809;49.476;11.016;2023-04-24T11:35:53;97439.97;;;13.99;50.79
21300;BME280;10809;49.476;11.016;2023-04-24T11:38:24;97441.63;;;14.11;49.77
21300;BME280;10809;49.476;11.016;2023-04-24T11:40:55;97450.06;;;14.16;49.11
21300;BME280;10809;49.476;11.016;2023-04-24T11:43:25;97443.75;;;14.17;48.93
21300;BME280;10809;49.476;11.016;2023-04-24T11:45:59;97453.81;;;14.14;49.14
21300;BME280;10809;49.476;11.016;2023-04-24T11:48:34;97465.81;;;14.08;48.95
21300;BME280;10809;49.476;11.016;2023-04-24T11:51:09;97471.06;;;13.99;48.50
21300;BME280;10809;49.476;11.016;2023-04-24T11:53:41;97474.72;;;13.87;48.20
21300;BME280;10809;49.476;11.016;2023-04-24T11:56:17;97475.84;;;13.73;48.41
21300;BME280;10809;49.476;11.016;2023-04-24T11:58:52;97467.91;;;13.62;48.74
21300;BME280;10809;49.476;11.016;2023-04-24T12:01:22;97479.16;;;13.55;48.89
21300;BME280;10809;49.476;11.016;2023-04-24T12:03:59;97492.81;;;13.50;49.14
21300;BME280;10809;49.476;11.016;2023-04-24T12:06:39;97479.66;;;13.49;48.97
21300;BME280;10809;49.476;11.016;2023-04-24T12:09:09;97494.91;;;13.47;48.70
21300;BME280;10809;49.476;11.016;2023-04-24T12:11:52;97485.34;;;13.44;49.06
21300;BME280;10809;49.476;11.016;2023-04-24T12:14:26;97483.41;;;13.46;49.37
21300;BME280;10809;49.476;11.016;2023-04-24T12:16:57;97491.03;;;13.51;49.37
21300;BME280;10809;49.476;11.016;2023-04-24T12:19:29;97488.00;;;13.55;49.21
21300;BME280;10809;49.476;11.016;2023-04-24T12:22:01;97484.97;;;13.60;48.80
21300;BME280;10809;49.476;11.016;2023-04-24T12:24:32;97483.59;;;13.65;49.40
21300;BME280;10809;49.476;11.016;2023-04-24T12:27:06;97481.19;;;13.73;49.50
21300;BME280;10809;49.476;11.016;2023-04-24T12:29:36;97482.97;;;13.84;48.88
21300;BME280;10809;49.476;11.016;2023-04-24T12:32:16;97477.75;;;13.93;48.98
21300;BME280;10809;49.476;11.016;2023-04-24T12:34:46;97479.78;;;14.01;48.55
21300;BME280;10809;49.476;11.016;2023-04-24T12:37:16;97492.81;;;14.04;48.29
21300;BME280;10809;49.476;11.016;2023-04-24T12:40:03;97482.78;;;14.07;48.57
21300;BME280;10809;49.476;11.016;2023-04-24T12:42:42;97492.19;;;14.11;48.49
21300;BME280;10809;49.476;11.016;2023-04-24T12:45:17;97497.63;;;14.10;47.98
21300;BME280;10809;49.476;11.016;2023-04-24T12:47:48;97501.28;;;14.09;48.15
21300;BME280;10809;49.476;11.016;2023-04-24T12:50:18;97500.69;;;14.05;47.32
21300;BME280;10809;49.476;11.016;2023-04-24T12:52:49;97494.75;;;14.02;47.46
21300;BME280;10809;49.476;11.016;2023-04-24T12:55:20;97495.00;;;13.99;47.55
21300;BME280;10809;49.476;11.016;2023-04-24T12:57:50;97503.38;;;13.94;47.39
21300;BME280;10809;49.476;11.016;2023-04-24T13:00:22;97497.56;;;13.89;47.76
21300;BME280;10809;49.476;11.016;2023-04-24T13:02:52;97508.47;;;13.86;47.51
21300;BME280;10809;49.476;11.016;2023-04-24T13:05:22;97496.13;;;13.85;47.41
21300;BME280;10809;49.476;11.016;2023-04-24T13:07:57;97502.31;;;13.86;48.08
21300;BME280;10809;49.476;11.016;2023-04-24T13:10:30;97502.88;;;13.89;48.09
21300;BME280;10809;49.476;11.016;2023-04-24T13:13:00;97494.44;;;13.95;47.92
21300;BME280;10809;49.476;11.016;2023-04-24T13:15:34;97504.84;;;13.98;47.60
21300;BME280;10809;49.476;11.016;2023-04-24T13:18:05;97497.78;;;13.97;47.11
21300;BME280;10809;49.476;11.016;2023-04-24T13:20:35;97509.69;;;13.93;47.07
21300;BME280;10809;49.476;11.016;2023-04-24T13:23:06;97501.47;;;13.85;46.86
21300;BME280;10809;49.476;11.016;2023-04-24T13:25:36;97508.25;;;13.78;47.51
21300;BME280;10809;49.476;11.016;2023-04-24T13:28:09;97502.84;;;13.69;47.38